sensor_id;sensor_type;location;lat;lon;timestamp;P1;durP1;ratioP1;P2;durP2;ratioP2
49416;SDS011;35290;39.550;8.786;2023-05-02T00:00:13;22.27;;;4.43;;
49416;SDS011;35290;39.550;8.786;2023-05-02T00:02:38;24.58;;;7.07;;
49416;SDS011;35290;39.550;8.786;2023-05-02T00:05:05;25.65;;;8.77;;
49416;SDS011;35290;39.550;8.786;2023-05-02T00:07:31;33.28;;;10.05;;
49416;SDS011;35290;39.550;8.786;2023-05-02T00:09:57;35.08;;;12.52;;
49416;SDS011;35290;39.550;8.786;2023-05-02T00:12:23;22.85;;;7.05;;
49416;SDS011;35290;39.550;8.786;2023-05-02T00:14:49;24.05;;;6.47;;
49416;SDS011;35290;39.550;8.786;2023-05-02T00:17:18;22.05;;;4.88;;
49416;SDS011;35290;39.550;8.786;2023-05-02T00:19:45;18.08;;;4.03;;
49416;SDS011;35290;39.550;8.786;2023-05-02T00:25:14;21.42;;;3.97;;
49416;SDS011;35290;39.550;8.786;2023-05-02T00:30:44;18.05;;;3.30;;
49416;SDS011;35290;39.550;8.786;2023-05-02T00:33:11;16.15;;;3.42;;
49416;SDS011;35290;39.550;8.786;2023-05-02T00:35:37;18.17;;;3.53;;
49416;SDS011;35290;39.550;8.786;2023-05-02T00:38:03;17.98;;;3.70;;
49416;SDS011;35290;39.550;8.786;2023-05-02T00:43:32;17.67;;;4.35;;
49416;SDS011;35290;39.550;8.786;2023-05-02T00:45:58;23.38;;;6.10;;
49416;SDS011;35290;39.550;8.786;2023-05-02T00:48:24;22.13;;;5.70;;
49416;SDS011;35290;39.550;8.786;2023-05-02T01:07:13;15.57;;;3.50;;
49416;SDS011;35290;39.550;8.786;2023-05-02T01:17:38;14.35;;;3.33;;
49416;SDS011;35290;39.550;8.786;2023-05-02T01:20:05;16.08;;;4.15;;
49416;SDS011;35290;39.550;8.786;2023-05-02T01:22:32;19.48;;;4.38;;
49416;SDS011;35290;39.550;8.786;2023-05-02T01:25:03;27.02;;;4.95;;
49416;SDS011;35290;39.550;8.786;2023-05-02T01:27:46;20.63;;;4.82;;
49416;SDS011;35290;39.550;8.786;2023-05-02T01:30:14;16.17;;;3.72;;
49416;SDS011;35290;39.550;8.786;2023-05-02T01:32:42;19.55;;;3.88;;
49416;SDS011;35290;39.550;8.786;2023-05-02T01:35:10;17.73;;;4.00;;
49416;SDS011;35290;39.550;8.786;2023-05-02T01:37:38;18.77;;;3.95;;
49416;SDS011;35290;39.550;8.786;2023-05-02T01:40:05;20.83;;;4.60;;
49416;SDS011;35290;39.550;8.786;2023-05-02T01:42:33;20.00;;;4.15;;
49416;SDS011;35290;39.550;8.786;2023-05-02T01:45:01;17.40;;;4.10;;
49416;SDS011;35290;39.550;8.786;2023-05-02T01:47:28;20.02;;;3.75;;
49416;SDS011;35290;39.550;8.786;2023-05-02T01:49:57;14.43;;;3.40;;
49416;SDS011;35290;39.550;8.786;2023-05-02T01:55:26;16.15;;;3.30;;
49416;SDS011;35290;39.550;8.786;2023-05-02T01:57:53;15.63;;;3.38;;
49416;SDS011;35290;39.550;8.786;2023-05-02T02:00:20;19.65;;;3.25;;
49416;SDS011;35290;39.550;8.786;2023-05-02T02:02:47;20.98;;;3.60;;
49416;SDS011;35290;39.550;8.786;2023-05-02T02:05:14;16.40;;;3.28;;
49416;SDS011;35290;39.550;8.786;2023-05-02T02:07:41;15.15;;;3.20;;
49416;SDS011;35290;39.550;8.786;2023-05-02T02:10:08;13.15;;;2.67;;
49416;SDS011;35290;39.550;8.786;2023-05-02T02:15:08;14.07;;;3.13;;
49416;SDS011;35290;39.550;8.786;2023-05-02T02:17:36;19.38;;;3.30;;
49416;SDS011;35290;39.550;8.786;2023-05-02T02:20:04;18.10;;;2.90;;
49416;SDS011;35290;39.550;8.786;2023-05-02T02:22:30;17.35;;;4.15;;
49416;SDS011;35290;39.550;8.786;2023-05-02T02:24:58;18.77;;;3.38;;
49416;SDS011;35290;39.550;8.786;2023-05-02T02:27:24;16.70;;;3.20;;
49416;SDS011;35290;39.550;8.786;2023-05-02T02:29:50;17.75;;;3.35;;
49416;SDS011;35290;39.550;8.786;2023-05-02T02:35:19;18.10;;;4.07;;
49416;SDS011;35290;39.550;8.786;2023-05-02T02:38:47;21.77;;;4.15;;
49416;SDS011;35290;39.550;8.786;2023-05-02T02:43:49;16.58;;;3.28;;
49416;SDS011;35290;39.550;8.786;2023-05-02T02:54:45;24.25;;;3.90;;
49416;SDS011;35290;39.550;8.786;2023-05-02T02:59:39;24.08;;;4.22;;
49416;SDS011;35290;39.550;8.786;2023-05-02T03:02:07;17.92;;;3.92;;
49416;SDS011;35290;39.550;8.786;2023-05-02T03:04:34;21.77;;;3.85;;
49416;SDS011;35290;39.550;8.786;2023-05-02T03:07:00;21.90;;;4.15;;
49416;SDS011;35290;39.550;8.786;2023-05-02T03:09:26;21.70;;;3.55;;
49416;SDS011;35290;39.550;8.786;2023-05-02T03:15:02;18.63;;;4.20;;
49416;SDS011;35290;39.550;8.786;2023-05-02T03:17:31;19.50;;;3.72;;
49416;SDS011;35290;39.550;8.786;2023-05-02T03:19:57;20.05;;;3.97;;
49416;SDS011;35290;39.550;8.786;2023-05-02T03:25:25;24.30;;;4.32;;
49416;SDS011;35290;39.550;8.786;2023-05-02T03:30:54;21.60;;;4.13;;
49416;SDS011;35290;39.550;8.786;2023-05-02T03:33:20;21.45;;;4.63;;
49416;SDS011;35290;39.550;8.786;2023-05-02T03:35:46;24.90;;;4.10;;
49416;SDS011;35290;39.550;8.786;2023-05-02T03:38:12;19.10;;;3.40;;
49416;SDS011;35290;39.550;8.786;2023-05-02T03:43:40;22.77;;;4.43;;
49416;SDS011;35290;39.550;8.786;2023-05-02T03:46:07;20.65;;;3.78;;
49416;SDS011;35290;39.550;8.786;2023-05-02T03:48:34;21.30;;;3.97;;
49416;SDS011;35290;39.550;8.786;2023-05-02T03:54:03;27.05;;;4.72;;
49416;SDS011;35290;39.550;8.786;2023-05-02T03:56:29;21.67;;;4.03;;
49416;SDS011;35290;39.550;8.786;2023-05-02T03:58:54;19.75;;;3.83;;
49416;SDS011;35290;39.550;8.786;2023-05-02T04:01:20;19.10;;;3.33;;
49416;SDS011;35290;39.550;8.786;2023-05-02T04:03:46;20.08;;;4.00;;
49416;SDS011;35290;39.550;8.786;2023-05-02T04:06:12;27.05;;;4.03;;
49416;SDS011;35290;39.550;8.786;2023-05-02T04:08:38;20.27;;;4.10;;
49416;SDS011;35290;39.550;8.786;2023-05-02T04:19:35;16.10;;;4.13;;
49416;SDS011;35290;39.550;8.786;2023-05-02T04:22:02;20.25;;;3.70;;
49416;SDS011;35290;39.550;8.786;2023-05-02T04:24:28;18.55;;;3.75;;
49416;SDS011;35290;39.550;8.786;2023-05-02T04:26:54;20.92;;;4.53;;
49416;SDS011;35290;39.550;8.786;2023-05-02T04:29:19;16.20;;;3.03;;
49416;SDS011;35290;39.550;8.786;2023-05-02T04:37:13;8.95;;;3.25;;
49416;SDS011;35290;39.550;8.786;2023-05-02T04:39:44;9.10;;;2.78;;
49416;SDS011;35290;39.550;8.786;2023-05-02T04:45:12;7.95;;;2.78;;
49416;SDS011;35290;39.550;8.786;2023-05-02T04:47:38;8.95;;;2.83;;
49416;SDS011;35290;39.550;8.786;2023-05-02T04:50:04;8.10;;;2.97;;
49416;SDS011;35290;39.550;8.786;2023-05-02T04:55:34;6.18;;;3.13;;
49416;SDS011;35290;39.550;8.786;2023-05-02T05:01:02;9.02;;;2.63;;
49416;SDS011;35290;39.550;8.786;2023-05-02T05:03:29;8.30;;;2.97;;
49416;SDS011;35290;39.550;8.786;2023-05-02T05:05:55;4.68;;;2.85;;
49416;SDS011;35290;39.550;8.786;2023-05-02T05:08:21;11.15;;;3.60;;
49416;SDS011;35290;39.550;8.786;2023-05-02T05:10:47;8.18;;;2.92;;
49416;SDS011;35290;39.550;8.786;2023-05-02T05:13:12;6.88;;;3.00;;
49416;SDS011;35290;39.550;8.786;2023-05-02T05:15:39;10.95;;;3.50;;
49416;SDS011;35290;39.550;8.786;2023-05-02T05:18:05;14.13;;;3.83;;
49416;SDS011;35290;39.550;8.786;2023-05-02T05:23:34;15.25;;;3.53;;
49416;SDS011;35290;39.550;8.786;2023-05-02T05:26:10;12.88;;;4.57;;
49416;SDS011;35290;39.550;8.786;2023-05-02T05:28:35;12.10;;;4.82;;
49416;SDS011;35290;39.550;8.786;2023-05-02T05:31:08;10.88;;;3.60;;
49416;SDS011;35290;39.550;8.786;2023-05-02T05:33:35;10.27;;;3.50;;
49416;SDS011;35290;39.550;8.786;2023-05-02T05:36:10;8.80;;;3.65;;
49416;SDS011;35290;39.550;8.786;2023-05-02T05:38:36;14.23;;;4.32;;
49416;SDS011;35290;39.550;8.786;2023-05-02T05:41:03;9.68;;;4.43;;
49416;SDS011;35290;39.550;8.786;2023-05-02T05:43:38;7.50;;;3.85;;
49416;SDS011;35290;39.550;8.786;2023-05-02T05:46:04;9.23;;;3.85;;
49416;SDS011;35290;39.550;8.786;2023-05-02T05:48:30;8.07;;;3.40;;
49416;SDS011;35290;39.550;8.786;2023-05-02T05:50:56;9.70;;;3.72;;
49416;SDS011;35290;39.550;8.786;2023-05-02T05:53:22;9.30;;;2.90;;
49416;SDS011;35290;39.550;8.786;2023-05-02T05:55:48;10.68;;;3.33;;
49416;SDS011;35290;39.550;8.786;2023-05-02T05:58:13;10.63;;;3.70;;
49416;SDS011;35290;39.550;8.786;2023-05-02T06:00:40;8.75;;;3.50;;
49416;SDS011;35290;39.550;8.786;2023-05-02T06:03:06;7.75;;;3.13;;
49416;SDS011;35290;39.550;8.786;2023-05-02T06:05:32;6.28;;;3.15;;
49416;SDS011;35290;39.550;8.786;2023-05-02T06:07:58;7.50;;;3.45;;
49416;SDS011;35290;39.550;8.786;2023-05-02T06:10:24;8.57;;;3.10;;
49416;SDS011;35290;39.550;8.786;2023-05-02T06:12:50;12.52;;;3.30;;
49416;SDS011;35290;39.550;8.786;2023-05-02T06:15:16;11.43;;;4.20;;
49416;SDS011;35290;39.550;8.786;2023-05-02T06:17:42;7.32;;;3.30;;
49416;SDS011;35290;39.550;8.786;2023-05-02T06:20:08;8.50;;;3.25;;
49416;SDS011;35290;39.550;8.786;2023-05-02T06:25:37;12.85;;;3.70;;
49416;SDS011;35290;39.550;8.786;2023-05-02T06:28:04;17.30;;;7.72;;
49416;SDS011;35290;39.550;8.786;2023-05-02T06:36:00;6.03;;;3.15;;
49416;SDS011;35290;39.550;8.786;2023-05-02T06:38:26;11.75;;;3.58;;
49416;SDS011;35290;39.550;8.786;2023-05-02T06:43:55;10.30;;;3.28;;
49416;SDS011;35290;39.550;8.786;2023-05-02T06:46:22;8.75;;;3.17;;
49416;SDS011;35290;39.550;8.786;2023-05-02T06:48:47;12.38;;;3.42;;
49416;SDS011;35290;39.550;8.786;2023-05-02T06:59:48;10.18;;;3.65;;
49416;SDS011;35290;39.550;8.786;2023-05-02T07:02:14;13.05;;;4.63;;
49416;SDS011;35290;39.550;8.786;2023-05-02T07:04:42;10.70;;;3.42;;
49416;SDS011;35290;39.550;8.786;2023-05-02T07:07:08;9.40;;;3.78;;
49416;SDS011;35290;39.550;8.786;2023-05-02T07:09:34;10.00;;;3.40;;
49416;SDS011;35290;39.550;8.786;2023-05-02T07:20:31;15.95;;;5.07;;
49416;SDS011;35290;39.550;8.786;2023-05-02T07:22:57;10.93;;;4.00;;
49416;SDS011;35290;39.550;8.786;2023-05-02T07:25:23;17.17;;;4.80;;
49416;SDS011;35290;39.550;8.786;2023-05-02T07:27:48;14.70;;;6.68;;
49416;SDS011;35290;39.550;8.786;2023-05-02T07:30:14;17.35;;;7.80;;
49416;SDS011;35290;39.550;8.786;2023-05-02T07:32:40;12.82;;;4.88;;
49416;SDS011;35290;39.550;8.786;2023-05-02T07:35:07;16.20;;;5.32;;
49416;SDS011;35290;39.550;8.786;2023-05-02T07:37:33;10.40;;;3.95;;
49416;SDS011;35290;39.550;8.786;2023-05-02T07:39:59;14.95;;;4.88;;
49416;SDS011;35290;39.550;8.786;2023-05-02T07:45:28;8.85;;;3.35;;
49416;SDS011;35290;39.550;8.786;2023-05-02T07:47:53;6.78;;;2.95;;
49416;SDS011;35290;39.550;8.786;2023-05-02T07:50:19;11.45;;;2.95;;
49416;SDS011;35290;39.550;8.786;2023-05-02T07:52:45;14.88;;;6.90;;
49416;SDS011;35290;39.550;8.786;2023-05-02T07:55:11;13.82;;;4.35;;
49416;SDS011;35290;39.550;8.786;2023-05-02T07:57:38;12.35;;;4.57;;
49416;SDS011;35290;39.550;8.786;2023-05-02T08:00:04;7.72;;;3.45;;
49416;SDS011;35290;39.550;8.786;2023-05-02T08:02:34;13.93;;;4.47;;
49416;SDS011;35290;39.550;8.786;2023-05-02T08:05:01;11.20;;;5.00;;
49416;SDS011;35290;39.550;8.786;2023-05-02T08:07:27;18.80;;;4.32;;
49416;SDS011;35290;39.550;8.786;2023-05-02T08:09:54;14.05;;;4.00;;
49416;SDS011;35290;39.550;8.786;2023-05-02T08:12:20;14.35;;;4.47;;
49416;SDS011;35290;39.550;8.786;2023-05-02T08:14:45;21.00;;;5.90;;
49416;SDS011;35290;39.550;8.786;2023-05-02T08:17:11;15.57;;;5.18;;
49416;SDS011;35290;39.550;8.786;2023-05-02T08:19:37;18.80;;;4.93;;
49416;SDS011;35290;39.550;8.786;2023-05-02T08:25:05;18.17;;;9.15;;
49416;SDS011;35290;39.550;8.786;2023-05-02T08:30:34;17.27;;;6.45;;
49416;SDS011;35290;39.550;8.786;2023-05-02T08:33:00;15.15;;;6.60;;
49416;SDS011;35290;39.550;8.786;2023-05-02T08:35:29;15.45;;;7.20;;
49416;SDS011;35290;39.550;8.786;2023-05-02T08:37:55;13.82;;;5.55;;
49416;SDS011;35290;39.550;8.786;2023-05-02T08:54:20;11.68;;;4.10;;
49416;SDS011;35290;39.550;8.786;2023-05-02T08:56:50;12.02;;;4.20;;
49416;SDS011;35290;39.550;8.786;2023-05-02T08:59:16;12.65;;;4.45;;
49416;SDS011;35290;39.550;8.786;2023-05-02T09:01:42;9.32;;;4.18;;
49416;SDS011;35290;39.550;8.786;2023-05-02T09:04:10;5.38;;;3.13;;
49416;SDS011;35290;39.550;8.786;2023-05-02T09:06:36;9.98;;;3.45;;
49416;SDS011;35290;39.550;8.786;2023-05-02T09:09:02;9.02;;;3.88;;
49416;SDS011;35290;39.550;8.786;2023-05-02T09:11:28;7.85;;;3.55;;
49416;SDS011;35290;39.550;8.786;2023-05-02T09:13:54;7.80;;;3.50;;
49416;SDS011;35290;39.550;8.786;2023-05-02T09:16:24;10.98;;;3.95;;
49416;SDS011;35290;39.550;8.786;2023-05-02T09:18:51;10.70;;;4.03;;
49416;SDS011;35290;39.550;8.786;2023-05-02T09:21:19;9.90;;;3.92;;
49416;SDS011;35290;39.550;8.786;2023-05-02T09:23:48;9.65;;;3.97;;
49416;SDS011;35290;39.550;8.786;2023-05-02T09:26:16;16.05;;;4.50;;
49416;SDS011;35290;39.550;8.786;2023-05-02T09:31:13;13.02;;;5.80;;
49416;SDS011;35290;39.550;8.786;2023-05-02T09:33:41;12.85;;;4.97;;
49416;SDS011;35290;39.550;8.786;2023-05-02T09:36:09;7.47;;;3.90;;
49416;SDS011;35290;39.550;8.786;2023-05-02T09:38:36;9.52;;;4.10;;
49416;SDS011;35290;39.550;8.786;2023-05-02T09:44:08;10.15;;;4.32;;
49416;SDS011;35290;39.550;8.786;2023-05-02T09:46:38;12.15;;;4.88;;
49416;SDS011;35290;39.550;8.786;2023-05-02T09:49:05;10.50;;;4.50;;
49416;SDS011;35290;39.550;8.786;2023-05-02T09:57:02;13.68;;;5.55;;
49416;SDS011;35290;39.550;8.786;2023-05-02T09:59:40;11.23;;;5.80;;
49416;SDS011;35290;39.550;8.786;2023-05-02T10:02:08;12.25;;;4.82;;
49416;SDS011;35290;39.550;8.786;2023-05-02T10:04:37;8.93;;;4.25;;
49416;SDS011;35290;39.550;8.786;2023-05-02T10:07:03;13.63;;;4.13;;
49416;SDS011;35290;39.550;8.786;2023-05-02T10:09:30;18.90;;;5.78;;
49416;SDS011;35290;39.550;8.786;2023-05-02T10:11:59;12.95;;;5.35;;
49416;SDS011;35290;39.550;8.786;2023-05-02T10:14:29;13.52;;;5.15;;
49416;SDS011;35290;39.550;8.786;2023-05-02T10:19:29;12.50;;;3.90;;
49416;SDS011;35290;39.550;8.786;2023-05-02T10:21:55;8.38;;;3.50;;
49416;SDS011;35290;39.550;8.786;2023-05-02T10:24:23;10.10;;;3.15;;
49416;SDS011;35290;39.550;8.786;2023-05-02T10:26:53;8.60;;;2.70;;
49416;SDS011;35290;39.550;8.786;2023-05-02T10:29:20;7.53;;;2.70;;
49416;SDS011;35290;39.550;8.786;2023-05-02T10:31:47;8.55;;;2.15;;
49416;SDS011;35290;39.550;8.786;2023-05-02T10:34:13;6.80;;;2.53;;
49416;SDS011;35290;39.550;8.786;2023-05-02T10:36:41;7.82;;;2.83;;
49416;SDS011;35290;39.550;8.786;2023-05-02T10:39:07;10.10;;;3.00;;
49416;SDS011;35290;39.550;8.786;2023-05-02T10:44:37;4.43;;;2.40;;
49416;SDS011;35290;39.550;8.786;2023-05-02T10:47:22;9.90;;;2.47;;
49416;SDS011;35290;39.550;8.786;2023-05-02T10:49:51;8.52;;;2.20;;
49416;SDS011;35290;39.550;8.786;2023-05-02T10:55:22;9.95;;;2.50;;
49416;SDS011;35290;39.550;8.786;2023-05-02T11:00:25;7.20;;;2.50;;
49416;SDS011;35290;39.550;8.786;2023-05-02T11:02:51;6.95;;;3.05;;
49416;SDS011;35290;39.550;8.786;2023-05-02T11:05:17;9.07;;;2.75;;
49416;SDS011;35290;39.550;8.786;2023-05-02T11:07:43;8.55;;;3.28;;
49416;SDS011;35290;39.550;8.786;2023-05-02T11:18:10;6.95;;;3.42;;
49416;SDS011;35290;39.550;8.786;2023-05-02T11:20:38;12.65;;;4.32;;
49416;SDS011;35290;39.550;8.786;2023-05-02T11:29:54;10.48;;;3.08;;
49416;SDS011;35290;39.550;8.786;2023-05-02T11:35:26;6.15;;;2.28;;
49416;SDS011;35290;39.550;8.786;2023-05-02T11:38:09;8.65;;;2.10;;
49416;SDS011;35290;39.550;8.786;2023-05-02T11:46:05;5.72;;;2.05;;
49416;SDS011;35290;39.550;8.786;2023-05-02T11:48:35;4.18;;;1.77;;
49416;SDS011;35290;39.550;8.786;2023-05-02T11:54:04;2.65;;;1.83;;
49416;SDS011;35290;39.550;8.786;2023-05-02T12:02:04;3.05;;;1.63;;
49416;SDS011;35290;39.550;8.786;2023-05-02T12:04:44;5.28;;;1.90;;
49416;SDS011;35290;39.550;8.786;2023-05-02T12:07:49;4.95;;;2.30;;
49416;SDS011;35290;39.550;8.786;2023-05-02T12:10:43;4.15;;;1.50;;
49416;SDS011;35290;39.550;8.786;2023-05-02T12:13:35;5.07;;;1.60;;
49416;SDS011;35290;39.550;8.786;2023-05-02T12:16:28;5.00;;;2.05;;
49416;SDS011;35290;39.550;8.786;2023-05-02T12:19:06;5.82;;;3.22;;
49416;SDS011;35290;39.550;8.786;2023-05-02T12:21:34;5.95;;;3.55;;
49416;SDS011;35290;39.550;8.786;2023-05-02T12:24:02;4.57;;;1.98;;
49416;SDS011;35290;39.550;8.786;2023-05-02T12:26:32;3.67;;;2.00;;
49416;SDS011;35290;39.550;8.786;2023-05-02T12:29:03;4.20;;;2.00;;
49416;SDS011;35290;39.550;8.786;2023-05-02T12:34:08;2.78;;;1.20;;
49416;SDS011;35290;39.550;8.786;2023-05-02T12:37:23;3.92;;;1.20;;
49416;SDS011;35290;39.550;8.786;2023-05-02T12:46:32;6.17;;;1.43;;
49416;SDS011;35290;39.550;8.786;2023-05-02T12:49:03;3.42;;;1.35;;
49416;SDS011;35290;39.550;8.786;2023-05-02T12:54:33;6.30;;;2.58;;
49416;SDS011;35290;39.550;8.786;2023-05-02T12:57:00;7.57;;;2.97;;
49416;SDS011;35290;39.550;8.786;2023-05-02T12:59:27;9.45;;;2.70;;
49416;SDS011;35290;39.550;8.786;2023-05-02T13:01:59;9.77;;;3.10;;
49416;SDS011;35290;39.550;8.786;2023-05-02T13:04:36;8.55;;;3.03;;
49416;SDS011;35290;39.550;8.786;2023-05-02T13:09:48;11.00;;;2.95;;
49416;SDS011;35290;39.550;8.786;2023-05-02T13:12:15;7.18;;;2.92;;
49416;SDS011;35290;39.550;8.786;2023-05-02T13:14:41;7.43;;;3.05;;
49416;SDS011;35290;39.550;8.786;2023-05-02T13:17:09;7.88;;;3.20;;
49416;SDS011;35290;39.550;8.786;2023-05-02T13:19:39;8.48;;;3.08;;
49416;SDS011;35290;39.550;8.786;2023-05-02T13:22:05;9.63;;;2.53;;
49416;SDS011;35290;39.550;8.786;2023-05-02T13:24:33;6.43;;;2.17;;
49416;SDS011;35290;39.550;8.786;2023-05-02T13:27:00;8.50;;;2.33;;
49416;SDS011;35290;39.550;8.786;2023-05-02T13:29:29;13.65;;;2.80;;
49416;SDS011;35290;39.550;8.786;2023-05-02T13:34:58;10.77;;;3.78;;
49416;SDS011;35290;39.550;8.786;2023-05-02T13:37:25;9.10;;;3.50;;
49416;SDS011;35290;39.550;8.786;2023-05-02T13:39:51;26.73;;;11.15;;
49416;SDS011;35290;39.550;8.786;2023-05-02T13:42:18;16.75;;;7.25;;
49416;SDS011;35290;39.550;8.786;2023-05-02T13:44:48;19.88;;;7.97;;
49416;SDS011;35290;39.550;8.786;2023-05-02T13:47:15;17.83;;;6.75;;
49416;SDS011;35290;39.550;8.786;2023-05-02T13:49:43;19.17;;;7.20;;
49416;SDS011;35290;39.550;8.786;2023-05-02T13:58:24;21.02;;;7.05;;
49416;SDS011;35290;39.550;8.786;2023-05-02T14:00:53;18.98;;;6.53;;
49416;SDS011;35290;39.550;8.786;2023-05-02T14:03:19;14.27;;;5.15;;
49416;SDS011;35290;39.550;8.786;2023-05-02T14:08:48;15.27;;;5.38;;
49416;SDS011;35290;39.550;8.786;2023-05-02T14:11:26;18.25;;;4.93;;
49416;SDS011;35290;39.550;8.786;2023-05-02T14:14:07;8.20;;;2.50;;
49416;SDS011;35290;39.550;8.786;2023-05-02T14:16:46;9.30;;;2.38;;
49416;SDS011;35290;39.550;8.786;2023-05-02T14:19:14;5.85;;;2.47;;
49416;SDS011;35290;39.550;8.786;2023-05-02T14:21:43;8.10;;;2.67;;
49416;SDS011;35290;39.550;8.786;2023-05-02T14:24:08;9.85;;;3.30;;
49416;SDS011;35290;39.550;8.786;2023-05-02T14:26:39;7.40;;;2.25;;
49416;SDS011;35290;39.550;8.786;2023-05-02T14:29:05;7.55;;;2.30;;
49416;SDS011;35290;39.550;8.786;2023-05-02T14:31:32;7.60;;;1.90;;
49416;SDS011;35290;39.550;8.786;2023-05-02T14:33:58;4.82;;;1.88;;
49416;SDS011;35290;39.550;8.786;2023-05-02T14:36:24;4.63;;;1.63;;
49416;SDS011;35290;39.550;8.786;2023-05-02T14:38:54;8.40;;;2.83;;
49416;SDS011;35290;39.550;8.786;2023-05-02T14:44:40;5.65;;;2.17;;
49416;SDS011;35290;39.550;8.786;2023-05-02T14:47:09;7.47;;;2.35;;
49416;SDS011;35290;39.550;8.786;2023-05-02T14:49:34;4.78;;;1.80;;
49416;SDS011;35290;39.550;8.786;2023-05-02T14:52:02;4.70;;;1.30;;
49416;SDS011;35290;39.550;8.786;2023-05-02T14:54:30;5.18;;;1.42;;
49416;SDS011;35290;39.550;8.786;2023-05-02T14:57:00;6.70;;;1.58;;
49416;SDS011;35290;39.550;8.786;2023-05-02T14:59:28;5.50;;;1.63;;
49416;SDS011;35290;39.550;8.786;2023-05-02T15:01:54;9.30;;;1.83;;
49416;SDS011;35290;39.550;8.786;2023-05-02T15:04:21;5.75;;;1.23;;
49416;SDS011;35290;39.550;8.786;2023-05-02T15:07:05;7.40;;;1.77;;
49416;SDS011;35290;39.550;8.786;2023-05-02T15:09:44;4.30;;;1.70;;
49416;SDS011;35290;39.550;8.786;2023-05-02T15:12:16;6.82;;;1.50;;
49416;SDS011;35290;39.550;8.786;2023-05-02T15:14:44;7.90;;;1.40;;
49416;SDS011;35290;39.550;8.786;2023-05-02T15:17:11;8.43;;;1.83;;
49416;SDS011;35290;39.550;8.786;2023-05-02T15:19:37;7.82;;;1.50;;
49416;SDS011;35290;39.550;8.786;2023-05-02T15:25:07;5.70;;;1.40;;
49416;SDS011;35290;39.550;8.786;2023-05-02T15:27:33;10.15;;;1.95;;
49416;SDS011;35290;39.550;8.786;2023-05-02T15:30:00;10.00;;;1.88;;
49416;SDS011;35290;39.550;8.786;2023-05-02T15:35:40;11.77;;;3.67;;
49416;SDS011;35290;39.550;8.786;2023-05-02T15:46:56;8.68;;;1.90;;
49416;SDS011;35290;39.550;8.786;2023-05-02T15:49:22;9.27;;;2.20;;
49416;SDS011;35290;39.550;8.786;2023-05-02T15:55:02;6.10;;;1.90;;
49416;SDS011;35290;39.550;8.786;2023-05-02T15:57:29;11.90;;;2.05;;
49416;SDS011;35290;39.550;8.786;2023-05-02T15:59:59;7.40;;;1.63;;
49416;SDS011;35290;39.550;8.786;2023-05-02T16:05:46;9.90;;;2.05;;
49416;SDS011;35290;39.550;8.786;2023-05-02T16:08:45;6.50;;;1.88;;
49416;SDS011;35290;39.550;8.786;2023-05-02T16:14:19;5.70;;;2.22;;
49416;SDS011;35290;39.550;8.786;2023-05-02T16:16:48;7.88;;;2.40;;
49416;SDS011;35290;39.550;8.786;2023-05-02T16:19:18;7.65;;;1.88;;
49416;SDS011;35290;39.550;8.786;2023-05-02T16:21:44;9.10;;;1.75;;
49416;SDS011;35290;39.550;8.786;2023-05-02T16:24:10;6.15;;;1.92;;
49416;SDS011;35290;39.550;8.786;2023-05-02T16:26:39;3.03;;;1.65;;
49416;SDS011;35290;39.550;8.786;2023-05-02T16:29:06;7.97;;;2.40;;
49416;SDS011;35290;39.550;8.786;2023-05-02T16:34:35;3.85;;;1.50;;
49416;SDS011;35290;39.550;8.786;2023-05-02T16:37:02;9.77;;;2.03;;
49416;SDS011;35290;39.550;8.786;2023-05-02T16:39:28;7.07;;;1.90;;
49416;SDS011;35290;39.550;8.786;2023-05-02T16:44:57;6.10;;;1.92;;
49416;SDS011;35290;39.550;8.786;2023-05-02T16:47:23;9.07;;;3.15;;
49416;SDS011;35290;39.550;8.786;2023-05-02T16:49:56;6.90;;;2.20;;
49416;SDS011;35290;39.550;8.786;2023-05-02T16:55:26;6.50;;;2.75;;
49416;SDS011;35290;39.550;8.786;2023-05-02T16:57:51;9.90;;;4.63;;
49416;SDS011;35290;39.550;8.786;2023-05-02T17:00:19;10.57;;;3.90;;
49416;SDS011;35290;39.550;8.786;2023-05-02T17:02:48;8.30;;;2.10;;
49416;SDS011;35290;39.550;8.786;2023-05-02T17:05:21;4.78;;;1.85;;
49416;SDS011;35290;39.550;8.786;2023-05-02T17:07:46;6.15;;;2.10;;
49416;SDS011;35290;39.550;8.786;2023-05-02T17:10:16;12.93;;;5.75;;
49416;SDS011;35290;39.550;8.786;2023-05-02T17:15:49;7.55;;;4.07;;
49416;SDS011;35290;39.550;8.786;2023-05-02T17:18:26;6.25;;;1.70;;
49416;SDS011;35290;39.550;8.786;2023-05-02T17:26:48;4.95;;;2.17;;
49416;SDS011;35290;39.550;8.786;2023-05-02T17:32:34;4.82;;;1.65;;
49416;SDS011;35290;39.550;8.786;2023-05-02T17:35:23;7.55;;;1.83;;
49416;SDS011;35290;39.550;8.786;2023-05-02T17:40:45;11.18;;;4.57;;
49416;SDS011;35290;39.550;8.786;2023-05-02T17:55:39;12.18;;;2.90;;
49416;SDS011;35290;39.550;8.786;2023-05-02T17:58:11;8.97;;;1.83;;
49416;SDS011;35290;39.550;8.786;2023-05-02T18:06:44;12.70;;;2.53;;
49416;SDS011;35290;39.550;8.786;2023-05-02T18:09:21;9.68;;;2.53;;
49416;SDS011;35290;39.550;8.786;2023-05-02T18:17:45;8.43;;;1.50;;
49416;SDS011;35290;39.550;8.786;2023-05-02T18:20:33;8.35;;;1.50;;
49416;SDS011;35290;39.550;8.786;2023-05-02T18:23:07;11.88;;;2.00;;
49416;SDS011;35290;39.550;8.786;2023-05-02T18:25:33;14.98;;;2.15;;
49416;SDS011;35290;39.550;8.786;2023-05-02T18:28:00;15.85;;;2.10;;
49416;SDS011;35290;39.550;8.786;2023-05-02T18:30:26;10.98;;;1.70;;
49416;SDS011;35290;39.550;8.786;2023-05-02T18:32:52;9.80;;;1.98;;
49416;SDS011;35290;39.550;8.786;2023-05-02T18:35:18;8.48;;;1.85;;
49416;SDS011;35290;39.550;8.786;2023-05-02T18:37:44;16.10;;;2.08;;
49416;SDS011;35290;39.550;8.786;2023-05-02T18:40:10;12.65;;;2.55;;
49416;SDS011;35290;39.550;8.786;2023-05-02T18:42:36;15.77;;;2.42;;
49416;SDS011;35290;39.550;8.786;2023-05-02T18:45:03;11.98;;;1.80;;
49416;SDS011;35290;39.550;8.786;2023-05-02T18:47:29;14.95;;;2.35;;
49416;SDS011;35290;39.550;8.786;2023-05-02T18:49:56;14.20;;;2.03;;
49416;SDS011;35290;39.550;8.786;2023-05-02T19:01:17;19.83;;;1.85;;
49416;SDS011;35290;39.550;8.786;2023-05-02T19:03:55;15.23;;;2.70;;
49416;SDS011;35290;39.550;8.786;2023-05-02T19:06:34;14.30;;;2.63;;
49416;SDS011;35290;39.550;8.786;2023-05-02T19:09:10;13.25;;;2.10;;
49416;SDS011;35290;39.550;8.786;2023-05-02T19:17:53;12.90;;;1.83;;
49416;SDS011;35290;39.550;8.786;2023-05-02T19:30:14;12.88;;;2.53;;
49416;SDS011;35290;39.550;8.786;2023-05-02T19:32:54;13.50;;;2.53;;
49416;SDS011;35290;39.550;8.786;2023-05-02T19:35:23;19.30;;;2.13;;
49416;SDS011;35290;39.550;8.786;2023-05-02T19:38:04;15.13;;;2.30;;
49416;SDS011;35290;39.550;8.786;2023-05-02T19:40:50;14.60;;;2.22;;
49416;SDS011;35290;39.550;8.786;2023-05-02T19:43:19;12.60;;;2.10;;
49416;SDS011;35290;39.550;8.786;2023-05-02T19:45:46;10.05;;;2.13;;
49416;SDS011;35290;39.550;8.786;2023-05-02T19:48:18;9.18;;;1.88;;
49416;SDS011;35290;39.550;8.786;2023-05-02T19:53:55;12.55;;;2.03;;
49416;SDS011;35290;39.550;8.786;2023-05-02T20:14:36;10.55;;;1.70;;
49416;SDS011;35290;39.550;8.786;2023-05-02T20:17:09;16.80;;;2.20;;
49416;SDS011;35290;39.550;8.786;2023-05-02T20:19:44;13.63;;;2.03;;
49416;SDS011;35290;39.550;8.786;2023-05-02T20:36:38;19.10;;;2.40;;
49416;SDS011;35290;39.550;8.786;2023-05-02T20:39:33;16.45;;;2.15;;
49416;SDS011;35290;39.550;8.786;2023-05-02T20:47:40;9.70;;;1.60;;
49416;SDS011;35290;39.550;8.786;2023-05-02T20:50:09;14.70;;;2.53;;
49416;SDS011;35290;39.550;8.786;2023-05-02T21:01:35;12.48;;;2.30;;
49416;SDS011;35290;39.550;8.786;2023-05-02T21:04:03;13.75;;;2.15;;
49416;SDS011;35290;39.550;8.786;2023-05-02T21:06:29;12.50;;;2.40;;
49416;SDS011;35290;39.550;8.786;2023-05-02T21:08:56;15.23;;;2.38;;
49416;SDS011;35290;39.550;8.786;2023-05-02T21:17:16;11.70;;;2.40;;